Wedmore, United Kingdom
Current Conditions -  °F | °C
As of 5:20 PM on Friday 24 Oct 2014 (Local Time) from EGGD Reporting Station
Scattered Clouds Scattered Clouds  
Wind Chill: 54°   Ceiling: Unl
Heat Index: 54°   Visibility: 6mi
Dew Point: 52°   Wind: 15mph
Humidity: 94%   Direction: 260°W
Pressure: 29.91"   Gusts: NA
Location:  51.23°N, 2.81°W
Report Text: EGGD 241620Z 26013KT 9999 FEW007 SCT024 12/11 Q1013
Loading
Personal Weather Stations






























Interactive Weather Map
Tropical Storm Tracking
New forecast layout! Learn more

10-Day Weather Forecast

Advertisements
Track Severe Weather on mobile